sensor_id;sensor_type;location;lat;lon;timestamp;P1;durP1;ratioP1;P2;durP2;ratioP2
31770;SDS011;18343;50.152;8.182;2023-04-01T00:01:47;7.18;;;1.45;;
31770;SDS011;18343;50.152;8.182;2023-04-01T00:04:31;6.03;;;1.65;;
31770;SDS011;18343;50.152;8.182;2023-04-01T00:07:17;4.95;;;1.60;;
31770;SDS011;18343;50.152;8.182;2023-04-01T00:10:02;11.65;;;1.75;;
31770;SDS011;18343;50.152;8.182;2023-04-01T00:12:47;5.32;;;1.35;;
31770;SDS011;18343;50.152;8.182;2023-04-01T00:15:33;4.15;;;1.00;;
31770;SDS011;18343;50.152;8.182;2023-04-01T00:18:18;4.38;;;1.13;;
31770;SDS011;18343;50.152;8.182;2023-04-01T00:21:03;8.90;;;1.05;;
31770;SDS011;18343;50.152;8.182;2023-04-01T00:23:49;8.68;;;1.52;;
31770;SDS011;18343;50.152;8.182;2023-04-01T00:26:35;8.30;;;1.38;;
31770;SDS011;18343;50.152;8.182;2023-04-01T00:29:20;5.57;;;1.27;;
31770;SDS011;18343;50.152;8.182;2023-04-01T00:32:04;6.45;;;1.17;;
31770;SDS011;18343;50.152;8.182;2023-04-01T00:34:50;4.80;;;1.67;;
31770;SDS011;18343;50.152;8.182;2023-04-01T00:37:35;5.95;;;1.05;;
31770;SDS011;18343;50.152;8.182;2023-04-01T00:40:24;5.68;;;1.50;;
31770;SDS011;18343;50.152;8.182;2023-04-01T00:43:12;5.95;;;1.15;;
31770;SDS011;18343;50.152;8.182;2023-04-01T00:45:58;8.75;;;1.20;;
31770;SDS011;18343;50.152;8.182;2023-04-01T00:48:43;5.80;;;1.10;;
31770;SDS011;18343;50.152;8.182;2023-04-01T00:51:33;3.25;;;1.00;;
31770;SDS011;18343;50.152;8.182;2023-04-01T00:54:20;4.03;;;0.95;;
31770;SDS011;18343;50.152;8.182;2023-04-01T00:57:10;5.60;;;1.35;;
31770;SDS011;18343;50.152;8.182;2023-04-01T00:59:58;3.25;;;0.65;;
31770;SDS011;18343;50.152;8.182;2023-04-01T01:02:43;6.22;;;1.20;;
31770;SDS011;18343;50.152;8.182;2023-04-01T01:05:32;5.95;;;1.00;;
31770;SDS011;18343;50.152;8.182;2023-04-01T01:08:31;9.07;;;1.85;;
31770;SDS011;18343;50.152;8.182;2023-04-01T01:11:35;4.18;;;0.82;;
31770;SDS011;18343;50.152;8.182;2023-04-01T01:14:30;3.78;;;1.38;;
31770;SDS011;18343;50.152;8.182;2023-04-01T01:17:32;6.40;;;1.17;;
31770;SDS011;18343;50.152;8.182;2023-04-01T01:20:33;5.97;;;1.05;;
31770;SDS011;18343;50.152;8.182;2023-04-01T01:24:08;5.85;;;0.90;;
31770;SDS011;18343;50.152;8.182;2023-04-01T01:27:34;5.85;;;1.13;;
31770;SDS011;18343;50.152;8.182;2023-04-01T01:33:35;6.53;;;0.65;;
31770;SDS011;18343;50.152;8.182;2023-04-01T01:36:35;3.83;;;0.98;;
31770;SDS011;18343;50.152;8.182;2023-04-01T01:39:22;7.82;;;1.05;;
31770;SDS011;18343;50.152;8.182;2023-04-01T01:42:15;8.48;;;0.98;;
31770;SDS011;18343;50.152;8.182;2023-04-01T01:45:02;8.27;;;1.15;;
31770;SDS011;18343;50.152;8.182;2023-04-01T01:47:50;3.53;;;1.23;;
31770;SDS011;18343;50.152;8.182;2023-04-01T01:50:36;6.15;;;0.98;;
31770;SDS011;18343;50.152;8.182;2023-04-01T01:53:23;4.45;;;0.70;;
31770;SDS011;18343;50.152;8.182;2023-04-01T01:56:09;6.15;;;1.10;;
31770;SDS011;18343;50.152;8.182;2023-04-01T01:58:56;2.20;;;0.60;;
31770;SDS011;18343;50.152;8.182;2023-04-01T02:01:46;5.00;;;0.95;;
31770;SDS011;18343;50.152;8.182;2023-04-01T02:04:35;5.00;;;0.70;;
31770;SDS011;18343;50.152;8.182;2023-04-01T02:07:23;6.70;;;1.25;;
31770;SDS011;18343;50.152;8.182;2023-04-01T02:10:15;5.20;;;0.98;;
31770;SDS011;18343;50.152;8.182;2023-04-01T02:13:02;6.50;;;1.33;;
31770;SDS011;18343;50.152;8.182;2023-04-01T02:15:58;6.57;;;0.90;;
31770;SDS011;18343;50.152;8.182;2023-04-01T02:18:48;6.97;;;1.38;;
31770;SDS011;18343;50.152;8.182;2023-04-01T02:21:36;6.18;;;0.88;;
31770;SDS011;18343;50.152;8.182;2023-04-01T02:24:23;3.28;;;0.80;;
31770;SDS011;18343;50.152;8.182;2023-04-01T02:27:13;4.50;;;0.80;;
31770;SDS011;18343;50.152;8.182;2023-04-01T02:29:57;4.95;;;0.85;;
31770;SDS011;18343;50.152;8.182;2023-04-01T02:32:43;6.60;;;1.23;;
31770;SDS011;18343;50.152;8.182;2023-04-01T02:35:30;8.38;;;0.82;;
31770;SDS011;18343;50.152;8.182;2023-04-01T02:38:16;4.78;;;0.70;;
31770;SDS011;18343;50.152;8.182;2023-04-01T02:41:00;4.40;;;0.93;;
31770;SDS011;18343;50.152;8.182;2023-04-01T02:43:48;5.82;;;1.13;;
31770;SDS011;18343;50.152;8.182;2023-04-01T02:46:33;1.50;;;0.55;;
31770;SDS011;18343;50.152;8.182;2023-04-01T02:49:19;9.63;;;2.05;;
31770;SDS011;18343;50.152;8.182;2023-04-01T02:52:03;4.07;;;1.00;;
31770;SDS011;18343;50.152;8.182;2023-04-01T02:54:48;3.67;;;0.82;;
31770;SDS011;18343;50.152;8.182;2023-04-01T02:57:32;3.33;;;0.73;;
31770;SDS011;18343;50.152;8.182;2023-04-01T03:00:18;4.78;;;0.90;;
31770;SDS011;18343;50.152;8.182;2023-04-01T03:03:03;5.15;;;0.77;;
31770;SDS011;18343;50.152;8.182;2023-04-01T03:05:48;3.92;;;0.73;;
31770;SDS011;18343;50.152;8.182;2023-04-01T03:08:32;4.88;;;0.80;;
31770;SDS011;18343;50.152;8.182;2023-04-01T03:11:17;4.13;;;0.90;;
31770;SDS011;18343;50.152;8.182;2023-04-01T03:14:01;5.13;;;1.30;;
31770;SDS011;18343;50.152;8.182;2023-04-01T03:16:47;4.40;;;1.00;;
31770;SDS011;18343;50.152;8.182;2023-04-01T03:19:32;4.55;;;0.93;;
31770;SDS011;18343;50.152;8.182;2023-04-01T03:22:16;6.88;;;1.10;;
31770;SDS011;18343;50.152;8.182;2023-04-01T03:25:01;4.15;;;1.60;;
31770;SDS011;18343;50.152;8.182;2023-04-01T03:27:46;6.47;;;1.38;;
31770;SDS011;18343;50.152;8.182;2023-04-01T03:30:31;6.30;;;1.13;;
31770;SDS011;18343;50.152;8.182;2023-04-01T03:33:17;4.75;;;0.93;;
31770;SDS011;18343;50.152;8.182;2023-04-01T03:36:01;8.20;;;1.60;;
31770;SDS011;18343;50.152;8.182;2023-04-01T03:38:46;4.22;;;0.90;;
31770;SDS011;18343;50.152;8.182;2023-04-01T03:41:31;3.47;;;0.85;;
31770;SDS011;18343;50.152;8.182;2023-04-01T03:44:19;11.13;;;1.63;;
31770;SDS011;18343;50.152;8.182;2023-04-01T03:47:03;4.53;;;0.95;;
31770;SDS011;18343;50.152;8.182;2023-04-01T03:49:49;4.40;;;0.95;;
31770;SDS011;18343;50.152;8.182;2023-04-01T03:52:34;4.85;;;0.90;;
31770;SDS011;18343;50.152;8.182;2023-04-01T03:55:18;3.22;;;0.60;;
31770;SDS011;18343;50.152;8.182;2023-04-01T03:58:03;6.47;;;1.45;;
31770;SDS011;18343;50.152;8.182;2023-04-01T04:00:48;5.07;;;0.65;;
31770;SDS011;18343;50.152;8.182;2023-04-01T04:03:33;4.45;;;0.77;;
31770;SDS011;18343;50.152;8.182;2023-04-01T04:06:19;5.90;;;1.08;;
31770;SDS011;18343;50.152;8.182;2023-04-01T04:09:04;9.60;;;1.42;;
31770;SDS011;18343;50.152;8.182;2023-04-01T04:11:48;3.30;;;0.75;;
31770;SDS011;18343;50.152;8.182;2023-04-01T04:14:33;8.32;;;1.20;;
31770;SDS011;18343;50.152;8.182;2023-04-01T04:17:17;5.60;;;0.93;;
31770;SDS011;18343;50.152;8.182;2023-04-01T04:20:02;1.02;;;0.55;;
31770;SDS011;18343;50.152;8.182;2023-04-01T04:22:49;2.08;;;0.63;;
31770;SDS011;18343;50.152;8.182;2023-04-01T04:25:34;2.35;;;1.30;;
31770;SDS011;18343;50.152;8.182;2023-04-01T04:28:18;3.03;;;0.95;;
31770;SDS011;18343;50.152;8.182;2023-04-01T04:31:03;5.13;;;1.10;;
31770;SDS011;18343;50.152;8.182;2023-04-01T04:33:48;4.78;;;0.70;;
31770;SDS011;18343;50.152;8.182;2023-04-01T04:36:32;5.45;;;0.70;;
31770;SDS011;18343;50.152;8.182;2023-04-01T04:39:19;2.75;;;0.82;;
31770;SDS011;18343;50.152;8.182;2023-04-01T04:42:03;2.45;;;0.60;;
31770;SDS011;18343;50.152;8.182;2023-04-01T04:44:49;4.90;;;0.70;;
31770;SDS011;18343;50.152;8.182;2023-04-01T04:47:33;3.20;;;0.52;;
31770;SDS011;18343;50.152;8.182;2023-04-01T04:50:18;3.60;;;0.60;;
31770;SDS011;18343;50.152;8.182;2023-04-01T04:53:03;4.28;;;0.88;;
31770;SDS011;18343;50.152;8.182;2023-04-01T04:55:49;4.47;;;0.77;;
31770;SDS011;18343;50.152;8.182;2023-04-01T04:58:34;3.85;;;0.70;;
31770;SDS011;18343;50.152;8.182;2023-04-01T05:01:19;3.05;;;0.80;;
31770;SDS011;18343;50.152;8.182;2023-04-01T05:04:04;3.47;;;0.52;;
31770;SDS011;18343;50.152;8.182;2023-04-01T05:06:49;4.38;;;0.73;;
31770;SDS011;18343;50.152;8.182;2023-04-01T05:09:33;4.13;;;0.65;;
31770;SDS011;18343;50.152;8.182;2023-04-01T05:12:19;3.75;;;0.57;;
31770;SDS011;18343;50.152;8.182;2023-04-01T05:15:04;4.03;;;0.65;;
31770;SDS011;18343;50.152;8.182;2023-04-01T05:17:50;0.98;;;0.60;;
31770;SDS011;18343;50.152;8.182;2023-04-01T05:20:35;3.53;;;0.70;;
31770;SDS011;18343;50.152;8.182;2023-04-01T05:23:20;2.40;;;0.50;;
31770;SDS011;18343;50.152;8.182;2023-04-01T05:26:09;6.63;;;1.27;;
31770;SDS011;18343;50.152;8.182;2023-04-01T05:28:57;3.58;;;0.90;;
31770;SDS011;18343;50.152;8.182;2023-04-01T05:31:42;3.42;;;0.80;;
31770;SDS011;18343;50.152;8.182;2023-04-01T05:34:26;5.75;;;0.65;;
31770;SDS011;18343;50.152;8.182;2023-04-01T05:37:10;1.55;;;0.70;;
31770;SDS011;18343;50.152;8.182;2023-04-01T05:39:55;4.85;;;0.45;;
31770;SDS011;18343;50.152;8.182;2023-04-01T05:42:40;2.22;;;0.60;;
31770;SDS011;18343;50.152;8.182;2023-04-01T05:45:26;1.33;;;0.55;;
31770;SDS011;18343;50.152;8.182;2023-04-01T05:48:11;3.42;;;0.57;;
31770;SDS011;18343;50.152;8.182;2023-04-01T05:50:55;3.20;;;1.15;;
31770;SDS011;18343;50.152;8.182;2023-04-01T05:53:40;2.00;;;0.70;;
31770;SDS011;18343;50.152;8.182;2023-04-01T05:56:24;5.93;;;0.60;;
31770;SDS011;18343;50.152;8.182;2023-04-01T05:59:09;2.70;;;0.70;;
31770;SDS011;18343;50.152;8.182;2023-04-01T06:01:56;1.90;;;0.60;;
31770;SDS011;18343;50.152;8.182;2023-04-01T06:04:41;2.53;;;0.43;;
31770;SDS011;18343;50.152;8.182;2023-04-01T06:07:25;2.65;;;0.60;;
31770;SDS011;18343;50.152;8.182;2023-04-01T06:10:13;2.05;;;0.68;;
31770;SDS011;18343;50.152;8.182;2023-04-01T06:13:00;2.90;;;0.40;;
31770;SDS011;18343;50.152;8.182;2023-04-01T06:15:57;1.60;;;0.52;;
31770;SDS011;18343;50.152;8.182;2023-04-01T06:19:05;4.70;;;1.60;;
31770;SDS011;18343;50.152;8.182;2023-04-01T06:22:17;1.85;;;0.47;;
31770;SDS011;18343;50.152;8.182;2023-04-01T06:25:21;1.00;;;0.50;;
31770;SDS011;18343;50.152;8.182;2023-04-01T06:28:27;1.15;;;0.32;;
31770;SDS011;18343;50.152;8.182;2023-04-01T06:31:34;2.33;;;0.47;;
31770;SDS011;18343;50.152;8.182;2023-04-01T06:34:52;6.85;;;1.20;;
31770;SDS011;18343;50.152;8.182;2023-04-01T06:38:20;2.83;;;1.15;;
31770;SDS011;18343;50.152;8.182;2023-04-01T06:41:25;1.13;;;0.50;;
31770;SDS011;18343;50.152;8.182;2023-04-01T06:44:27;1.05;;;0.30;;
31770;SDS011;18343;50.152;8.182;2023-04-01T06:47:26;5.47;;;0.75;;
31770;SDS011;18343;50.152;8.182;2023-04-01T06:50:26;1.25;;;0.70;;
31770;SDS011;18343;50.152;8.182;2023-04-01T06:53:21;1.90;;;0.52;;
31770;SDS011;18343;50.152;8.182;2023-04-01T06:56:14;3.53;;;2.35;;
31770;SDS011;18343;50.152;8.182;2023-04-01T06:59:02;3.40;;;0.52;;
31770;SDS011;18343;50.152;8.182;2023-04-01T07:01:53;3.25;;;0.63;;
31770;SDS011;18343;50.152;8.182;2023-04-01T07:04:43;1.25;;;0.40;;
31770;SDS011;18343;50.152;8.182;2023-04-01T07:07:35;3.40;;;0.35;;
31770;SDS011;18343;50.152;8.182;2023-04-01T07:10:26;0.55;;;0.28;;
31770;SDS011;18343;50.152;8.182;2023-04-01T07:13:20;1.38;;;0.40;;
31770;SDS011;18343;50.152;8.182;2023-04-01T07:16:11;2.75;;;0.40;;
31770;SDS011;18343;50.152;8.182;2023-04-01T07:19:01;2.90;;;0.30;;
31770;SDS011;18343;50.152;8.182;2023-04-01T07:21:52;0.85;;;0.40;;
31770;SDS011;18343;50.152;8.182;2023-04-01T07:24:44;2.80;;;0.50;;
31770;SDS011;18343;50.152;8.182;2023-04-01T07:27:29;4.10;;;0.43;;
31770;SDS011;18343;50.152;8.182;2023-04-01T07:30:14;1.20;;;0.60;;
31770;SDS011;18343;50.152;8.182;2023-04-01T07:33:02;0.40;;;0.38;;
31770;SDS011;18343;50.152;8.182;2023-04-01T07:35:54;1.00;;;0.50;;
31770;SDS011;18343;50.152;8.182;2023-04-01T07:38:46;1.60;;;0.55;;
31770;SDS011;18343;50.152;8.182;2023-04-01T07:41:45;1.45;;;0.40;;
31770;SDS011;18343;50.152;8.182;2023-04-01T07:44:41;1.92;;;0.40;;
31770;SDS011;18343;50.152;8.182;2023-04-01T07:47:41;0.70;;;0.30;;
31770;SDS011;18343;50.152;8.182;2023-04-01T07:50:44;1.67;;;0.28;;
31770;SDS011;18343;50.152;8.182;2023-04-01T07:53:41;0.85;;;0.30;;
31770;SDS011;18343;50.152;8.182;2023-04-01T07:56:34;0.40;;;0.32;;
31770;SDS011;18343;50.152;8.182;2023-04-01T07:59:30;1.08;;;0.95;;
31770;SDS011;18343;50.152;8.182;2023-04-01T08:02:27;2.67;;;0.52;;
31770;SDS011;18343;50.152;8.182;2023-04-01T08:05:27;1.20;;;0.70;;
31770;SDS011;18343;50.152;8.182;2023-04-01T08:08:18;0.90;;;0.38;;
31770;SDS011;18343;50.152;8.182;2023-04-01T08:11:13;0.85;;;0.30;;
31770;SDS011;18343;50.152;8.182;2023-04-01T08:14:17;1.15;;;0.40;;
31770;SDS011;18343;50.152;8.182;2023-04-01T08:17:16;0.20;;;0.20;;
31770;SDS011;18343;50.152;8.182;2023-04-01T08:20:14;0.65;;;0.30;;
31770;SDS011;18343;50.152;8.182;2023-04-01T08:23:12;0.80;;;0.35;;
31770;SDS011;18343;50.152;8.182;2023-04-01T08:26:01;3.20;;;0.30;;
31770;SDS011;18343;50.152;8.182;2023-04-01T08:28:51;0.85;;;0.32;;
31770;SDS011;18343;50.152;8.182;2023-04-01T08:31:43;1.58;;;0.50;;
31770;SDS011;18343;50.152;8.182;2023-04-01T08:34:34;1.52;;;0.40;;
31770;SDS011;18343;50.152;8.182;2023-04-01T08:37:22;0.63;;;0.40;;
31770;SDS011;18343;50.152;8.182;2023-04-01T08:43:44;0.43;;;0.40;;
31770;SDS011;18343;50.152;8.182;2023-04-01T08:47:17;0.68;;;0.38;;
31770;SDS011;18343;50.152;8.182;2023-04-01T08:50:28;2.15;;;0.60;;
31770;SDS011;18343;50.152;8.182;2023-04-01T08:53:48;0.85;;;0.40;;
31770;SDS011;18343;50.152;8.182;2023-04-01T08:56:56;1.23;;;0.40;;
31770;SDS011;18343;50.152;8.182;2023-04-01T08:59:53;0.57;;;0.30;;
31770;SDS011;18343;50.152;8.182;2023-04-01T09:02:54;1.40;;;0.38;;
31770;SDS011;18343;50.152;8.182;2023-04-01T09:13:09;0.65;;;0.28;;
31770;SDS011;18343;50.152;8.182;2023-04-01T09:20:01;0.73;;;0.40;;
31770;SDS011;18343;50.152;8.182;2023-04-01T09:23:25;2.50;;;0.57;;
31770;SDS011;18343;50.152;8.182;2023-04-01T09:26:27;1.23;;;0.47;;
31770;SDS011;18343;50.152;8.182;2023-04-01T09:29:52;0.75;;;0.20;;
31770;SDS011;18343;50.152;8.182;2023-04-01T09:36:57;0.32;;;0.30;;
31770;SDS011;18343;50.152;8.182;2023-04-01T09:40:11;0.80;;;0.30;;
31770;SDS011;18343;50.152;8.182;2023-04-01T09:43:06;1.38;;;0.30;;
31770;SDS011;18343;50.152;8.182;2023-04-01T09:46:09;0.55;;;0.40;;
31770;SDS011;18343;50.152;8.182;2023-04-01T09:49:19;0.68;;;0.30;;
31770;SDS011;18343;50.152;8.182;2023-04-01T09:52:30;0.82;;;0.43;;
31770;SDS011;18343;50.152;8.182;2023-04-01T10:03:13;0.55;;;0.35;;
31770;SDS011;18343;50.152;8.182;2023-04-01T10:10:18;0.88;;;0.32;;
31770;SDS011;18343;50.152;8.182;2023-04-01T10:20:32;0.20;;;0.20;;
31770;SDS011;18343;50.152;8.182;2023-04-01T10:23:44;0.93;;;0.40;;
31770;SDS011;18343;50.152;8.182;2023-04-01T10:27:07;0.63;;;0.30;;
31770;SDS011;18343;50.152;8.182;2023-04-01T10:30:26;0.43;;;0.30;;
31770;SDS011;18343;50.152;8.182;2023-04-01T10:33:54;2.15;;;0.50;;
31770;SDS011;18343;50.152;8.182;2023-04-01T10:37:32;0.25;;;0.22;;
31770;SDS011;18343;50.152;8.182;2023-04-01T10:48:14;1.60;;;0.68;;
31770;SDS011;18343;50.152;8.182;2023-04-01T10:55:19;3.08;;;0.60;;
31770;SDS011;18343;50.152;8.182;2023-04-01T10:59:05;0.45;;;0.38;;
31770;SDS011;18343;50.152;8.182;2023-04-01T11:02:45;2.17;;;0.60;;
31770;SDS011;18343;50.152;8.182;2023-04-01T11:17:35;0.60;;;0.57;;
31770;SDS011;18343;50.152;8.182;2023-04-01T11:21:23;0.70;;;0.60;;
31770;SDS011;18343;50.152;8.182;2023-04-01T11:24:50;3.42;;;0.75;;
31770;SDS011;18343;50.152;8.182;2023-04-01T11:28:19;1.10;;;0.52;;
31770;SDS011;18343;50.152;8.182;2023-04-01T11:31:34;1.45;;;0.47;;
31770;SDS011;18343;50.152;8.182;2023-04-01T11:34:37;1.17;;;0.70;;
31770;SDS011;18343;50.152;8.182;2023-04-01T11:37:40;1.40;;;0.47;;
31770;SDS011;18343;50.152;8.182;2023-04-01T11:40:34;4.30;;;0.60;;
31770;SDS011;18343;50.152;8.182;2023-04-01T11:43:28;0.82;;;0.70;;
31770;SDS011;18343;50.152;8.182;2023-04-01T11:46:23;3.55;;;0.52;;
31770;SDS011;18343;50.152;8.182;2023-04-01T11:49:20;1.88;;;0.75;;
31770;SDS011;18343;50.152;8.182;2023-04-01T11:52:21;0.40;;;0.40;;
31770;SDS011;18343;50.152;8.182;2023-04-01T11:55:27;0.75;;;0.45;;
31770;SDS011;18343;50.152;8.182;2023-04-01T11:58:35;0.88;;;0.52;;
31770;SDS011;18343;50.152;8.182;2023-04-01T12:01:44;0.40;;;0.40;;
31770;SDS011;18343;50.152;8.182;2023-04-01T12:08:18;2.60;;;0.50;;
31770;SDS011;18343;50.152;8.182;2023-04-01T12:11:20;1.27;;;0.40;;
31770;SDS011;18343;50.152;8.182;2023-04-01T12:14:13;0.30;;;0.30;;
31770;SDS011;18343;50.152;8.182;2023-04-01T12:17:07;0.40;;;0.40;;
31770;SDS011;18343;50.152;8.182;2023-04-01T12:20:20;0.50;;;0.40;;
31770;SDS011;18343;50.152;8.182;2023-04-01T12:23:23;0.55;;;0.38;;
31770;SDS011;18343;50.152;8.182;2023-04-01T12:26:31;0.30;;;0.30;;
31770;SDS011;18343;50.152;8.182;2023-04-01T12:29:37;0.65;;;0.32;;
31770;SDS011;18343;50.152;8.182;2023-04-01T12:32:47;0.75;;;0.50;;
31770;SDS011;18343;50.152;8.182;2023-04-01T12:35:46;0.95;;;0.60;;
31770;SDS011;18343;50.152;8.182;2023-04-01T12:38:48;3.13;;;0.60;;
31770;SDS011;18343;50.152;8.182;2023-04-01T12:41:58;4.18;;;0.60;;
31770;SDS011;18343;50.152;8.182;2023-04-01T12:44:54;0.22;;;0.22;;
31770;SDS011;18343;50.152;8.182;2023-04-01T12:48:17;0.85;;;0.60;;
31770;SDS011;18343;50.152;8.182;2023-04-01T12:51:50;1.75;;;0.50;;
31770;SDS011;18343;50.152;8.182;2023-04-01T12:55:01;0.90;;;0.68;;
31770;SDS011;18343;50.152;8.182;2023-04-01T13:01:42;1.48;;;0.63;;
31770;SDS011;18343;50.152;8.182;2023-04-01T13:04:56;1.17;;;0.60;;
31770;SDS011;18343;50.152;8.182;2023-04-01T13:08:00;0.82;;;0.60;;
31770;SDS011;18343;50.152;8.182;2023-04-01T13:11:08;0.63;;;0.60;;
31770;SDS011;18343;50.152;8.182;2023-04-01T13:14:17;1.27;;;0.65;;
31770;SDS011;18343;50.152;8.182;2023-04-01T13:17:16;0.40;;;0.40;;
31770;SDS011;18343;50.152;8.182;2023-04-01T13:20:06;1.67;;;0.50;;
31770;SDS011;18343;50.152;8.182;2023-04-01T13:23:06;0.95;;;0.50;;
31770;SDS011;18343;50.152;8.182;2023-04-01T13:26:06;0.57;;;0.45;;
31770;SDS011;18343;50.152;8.182;2023-04-01T13:28:59;0.40;;;0.40;;
31770;SDS011;18343;50.152;8.182;2023-04-01T13:31:58;0.95;;;0.38;;
31770;SDS011;18343;50.152;8.182;2023-04-01T13:34:59;0.77;;;0.40;;
31770;SDS011;18343;50.152;8.182;2023-04-01T13:38:14;0.38;;;0.30;;
31770;SDS011;18343;50.152;8.182;2023-04-01T13:44:44;0.93;;;0.50;;
31770;SDS011;18343;50.152;8.182;2023-04-01T13:47:40;0.65;;;0.50;;
31770;SDS011;18343;50.152;8.182;2023-04-01T13:50:54;1.52;;;0.57;;
31770;SDS011;18343;50.152;8.182;2023-04-01T13:54:16;0.52;;;0.43;;
31770;SDS011;18343;50.152;8.182;2023-04-01T13:57:28;0.60;;;0.52;;
31770;SDS011;18343;50.152;8.182;2023-04-01T14:03:42;1.05;;;0.68;;
31770;SDS011;18343;50.152;8.182;2023-04-01T14:06:45;1.20;;;0.60;;
31770;SDS011;18343;50.152;8.182;2023-04-01T14:10:14;1.20;;;0.50;;
31770;SDS011;18343;50.152;8.182;2023-04-01T14:13:09;0.63;;;0.50;;
31770;SDS011;18343;50.152;8.182;2023-04-01T14:23:17;0.38;;;0.38;;
31770;SDS011;18343;50.152;8.182;2023-04-01T14:26:23;1.50;;;0.50;;
31770;SDS011;18343;50.152;8.182;2023-04-01T14:29:43;0.70;;;0.40;;
31770;SDS011;18343;50.152;8.182;2023-04-01T14:32:45;1.80;;;0.63;;
31770;SDS011;18343;50.152;8.182;2023-04-01T14:35:44;0.73;;;0.60;;
31770;SDS011;18343;50.152;8.182;2023-04-01T14:38:47;3.80;;;0.60;;
31770;SDS011;18343;50.152;8.182;2023-04-01T14:41:44;0.73;;;0.60;;
31770;SDS011;18343;50.152;8.182;2023-04-01T14:44:44;3.67;;;1.27;;
31770;SDS011;18343;50.152;8.182;2023-04-01T14:48:06;0.85;;;0.55;;
31770;SDS011;18343;50.152;8.182;2023-04-01T14:51:13;2.05;;;0.90;;
31770;SDS011;18343;50.152;8.182;2023-04-01T14:54:05;1.58;;;0.70;;
31770;SDS011;18343;50.152;8.182;2023-04-01T14:57:04;1.38;;;1.00;;
31770;SDS011;18343;50.152;8.182;2023-04-01T14:59:59;0.35;;;0.35;;
31770;SDS011;18343;50.152;8.182;2023-04-01T15:02:46;0.77;;;0.50;;
31770;SDS011;18343;50.152;8.182;2023-04-01T15:05:43;1.95;;;0.60;;
31770;SDS011;18343;50.152;8.182;2023-04-01T15:08:36;1.25;;;0.50;;
31770;SDS011;18343;50.152;8.182;2023-04-01T15:11:36;1.23;;;0.80;;
31770;SDS011;18343;50.152;8.182;2023-04-01T15:14:43;1.30;;;0.80;;
31770;SDS011;18343;50.152;8.182;2023-04-01T15:17:43;1.33;;;0.70;;
31770;SDS011;18343;50.152;8.182;2023-04-01T15:20:45;4.07;;;0.70;;
31770;SDS011;18343;50.152;8.182;2023-04-01T15:23:52;2.10;;;0.80;;
31770;SDS011;18343;50.152;8.182;2023-04-01T15:30:22;0.52;;;0.50;;
31770;SDS011;18343;50.152;8.182;2023-04-01T15:33:19;2.13;;;0.55;;
31770;SDS011;18343;50.152;8.182;2023-04-01T15:36:31;0.88;;;0.60;;
31770;SDS011;18343;50.152;8.182;2023-04-01T15:39:28;2.75;;;0.77;;
31770;SDS011;18343;50.152;8.182;2023-04-01T15:42:31;1.42;;;0.70;;
31770;SDS011;18343;50.152;8.182;2023-04-01T15:45:31;0.82;;;0.52;;
31770;SDS011;18343;50.152;8.182;2023-04-01T15:48:31;1.55;;;0.50;;
31770;SDS011;18343;50.152;8.182;2023-04-01T15:54:48;0.50;;;0.50;;
31770;SDS011;18343;50.152;8.182;2023-04-01T15:58:17;0.73;;;0.55;;
31770;SDS011;18343;50.152;8.182;2023-04-01T16:04:30;2.25;;;0.38;;
31770;SDS011;18343;50.152;8.182;2023-04-01T16:14:00;3.13;;;0.77;;
31770;SDS011;18343;50.152;8.182;2023-04-01T16:17:00;0.65;;;0.50;;
31770;SDS011;18343;50.152;8.182;2023-04-01T16:20:07;0.70;;;0.52;;
31770;SDS011;18343;50.152;8.182;2023-04-01T16:23:04;2.25;;;0.75;;
31770;SDS011;18343;50.152;8.182;2023-04-01T16:26:01;0.68;;;0.68;;
31770;SDS011;18343;50.152;8.182;2023-04-01T16:28:57;1.02;;;0.73;;
31770;SDS011;18343;50.152;8.182;2023-04-01T16:31:52;1.50;;;0.50;;
31770;SDS011;18343;50.152;8.182;2023-04-01T16:34:47;0.43;;;0.43;;
31770;SDS011;18343;50.152;8.182;2023-04-01T16:37:49;0.75;;;0.57;;
31770;SDS011;18343;50.152;8.182;2023-04-01T16:40:40;1.88;;;1.00;;
31770;SDS011;18343;50.152;8.182;2023-04-01T16:43:38;0.77;;;0.35;;
31770;SDS011;18343;50.152;8.182;2023-04-01T16:46:27;1.30;;;0.90;;
31770;SDS011;18343;50.152;8.182;2023-04-01T16:49:21;2.03;;;0.50;;
31770;SDS011;18343;50.152;8.182;2023-04-01T16:52:14;2.90;;;0.80;;
31770;SDS011;18343;50.152;8.182;2023-04-01T16:55:12;1.45;;;0.70;;
31770;SDS011;18343;50.152;8.182;2023-04-01T16:58:01;1.13;;;0.68;;
31770;SDS011;18343;50.152;8.182;2023-04-01T17:00:49;0.70;;;0.60;;
31770;SDS011;18343;50.152;8.182;2023-04-01T17:03:37;2.55;;;0.52;;
31770;SDS011;18343;50.152;8.182;2023-04-01T17:06:28;1.23;;;0.68;;
31770;SDS011;18343;50.152;8.182;2023-04-01T17:09:27;1.67;;;0.40;;
31770;SDS011;18343;50.152;8.182;2023-04-01T17:12:27;1.13;;;0.70;;
31770;SDS011;18343;50.152;8.182;2023-04-01T17:15:20;0.70;;;0.65;;
31770;SDS011;18343;50.152;8.182;2023-04-01T17:18:16;1.25;;;0.68;;
31770;SDS011;18343;50.152;8.182;2023-04-01T17:21:10;10.15;;;5.22;;
31770;SDS011;18343;50.152;8.182;2023-04-01T17:24:02;2.97;;;1.90;;
31770;SDS011;18343;50.152;8.182;2023-04-01T17:27:05;2.63;;;1.00;;
31770;SDS011;18343;50.152;8.182;2023-04-01T17:33:44;1.25;;;0.77;;
31770;SDS011;18343;50.152;8.182;2023-04-01T17:39:46;0.75;;;0.60;;
31770;SDS011;18343;50.152;8.182;2023-04-01T17:42:52;1.00;;;0.50;;
31770;SDS011;18343;50.152;8.182;2023-04-01T17:45:47;0.93;;;0.80;;
31770;SDS011;18343;50.152;8.182;2023-04-01T17:48:41;0.80;;;0.70;;
31770;SDS011;18343;50.152;8.182;2023-04-01T17:51:33;1.65;;;0.80;;
31770;SDS011;18343;50.152;8.182;2023-04-01T17:54:25;1.30;;;0.90;;
31770;SDS011;18343;50.152;8.182;2023-04-01T18:00:30;1.13;;;0.80;;
31770;SDS011;18343;50.152;8.182;2023-04-01T18:03:23;1.85;;;0.93;;
31770;SDS011;18343;50.152;8.182;2023-04-01T18:06:41;1.33;;;0.90;;
31770;SDS011;18343;50.152;8.182;2023-04-01T18:09:46;1.75;;;1.00;;
31770;SDS011;18343;50.152;8.182;2023-04-01T18:12:56;1.00;;;0.90;;
31770;SDS011;18343;50.152;8.182;2023-04-01T18:16:11;1.05;;;0.70;;
31770;SDS011;18343;50.152;8.182;2023-04-01T18:22:09;0.75;;;0.70;;
31770;SDS011;18343;50.152;8.182;2023-04-01T18:25:10;1.95;;;0.88;;
31770;SDS011;18343;50.152;8.182;2023-04-01T18:28:25;0.60;;;0.60;;
31770;SDS011;18343;50.152;8.182;2023-04-01T18:31:19;3.40;;;0.80;;
31770;SDS011;18343;50.152;8.182;2023-04-01T18:34:07;6.97;;;1.20;;
31770;SDS011;18343;50.152;8.182;2023-04-01T18:37:02;1.15;;;1.00;;
31770;SDS011;18343;50.152;8.182;2023-04-01T18:40:06;4.95;;;0.98;;
31770;SDS011;18343;50.152;8.182;2023-04-01T18:43:04;0.95;;;0.80;;
31770;SDS011;18343;50.152;8.182;2023-04-01T18:46:03;1.33;;;0.90;;
31770;SDS011;18343;50.152;8.182;2023-04-01T18:49:05;1.30;;;0.88;;
31770;SDS011;18343;50.152;8.182;2023-04-01T18:51:57;0.70;;;0.60;;
31770;SDS011;18343;50.152;8.182;2023-04-01T18:55:14;1.58;;;0.82;;
31770;SDS011;18343;50.152;8.182;2023-04-01T18:58:22;1.42;;;0.98;;
31770;SDS011;18343;50.152;8.182;2023-04-01T19:01:15;1.25;;;0.88;;
31770;SDS011;18343;50.152;8.182;2023-04-01T19:04:10;0.95;;;0.88;;
31770;SDS011;18343;50.152;8.182;2023-04-01T19:07:21;0.80;;;0.77;;
31770;SDS011;18343;50.152;8.182;2023-04-01T19:10:31;1.13;;;0.80;;
31770;SDS011;18343;50.152;8.182;2023-04-01T19:13:26;1.30;;;1.10;;
31770;SDS011;18343;50.152;8.182;2023-04-01T19:16:25;1.33;;;1.15;;
31770;SDS011;18343;50.152;8.182;2023-04-01T19:19:29;2.45;;;2.00;;
31770;SDS011;18343;50.152;8.182;2023-04-01T19:22:36;3.42;;;2.90;;
31770;SDS011;18343;50.152;8.182;2023-04-01T19:25:41;5.78;;;2.78;;
31770;SDS011;18343;50.152;8.182;2023-04-01T19:28:36;3.33;;;2.53;;
31770;SDS011;18343;50.152;8.182;2023-04-01T19:31:33;4.60;;;2.95;;
31770;SDS011;18343;50.152;8.182;2023-04-01T19:34:37;7.13;;;6.00;;
31770;SDS011;18343;50.152;8.182;2023-04-01T19:37:35;4.22;;;3.53;;
31770;SDS011;18343;50.152;8.182;2023-04-01T19:40:30;4.03;;;3.08;;